createdAt,value
2023-02-04T00:01:43.378Z,6.18
2023-02-04T00:04:13.424Z,6.30
2023-02-04T00:06:43.166Z,5.15
2023-02-04T00:09:10.989Z,5.90
2023-02-04T00:11:38.860Z,6.38
2023-02-04T00:14:06.856Z,6.45
2023-02-04T00:16:34.906Z,6.18
2023-02-04T00:19:02.828Z,6.93
2023-02-04T00:21:30.851Z,6.13
2023-02-04T00:24:00.051Z,6.80
2023-02-04T00:26:28.124Z,7.63
2023-02-04T00:28:56.242Z,7.15
2023-02-04T00:31:24.293Z,6.75
2023-02-04T00:33:52.254Z,6.75
2023-02-04T00:36:20.208Z,6.97
2023-02-04T00:38:48.229Z,7.32
2023-02-04T00:41:17.464Z,6.97
2023-02-04T00:43:47.236Z,6.80
2023-02-04T00:46:15.154Z,6.30
2023-02-04T00:48:43.096Z,6.57
2023-02-04T00:51:11.165Z,6.72
2023-02-04T00:53:39.828Z,6.50
2023-02-04T00:56:08.106Z,7.70
2023-02-04T00:58:37.422Z,8.15
2023-02-04T01:01:06.147Z,6.37
2023-02-04T01:03:34.088Z,6.75
2023-02-04T01:06:03.371Z,6.43
2023-02-04T01:08:31.224Z,8.05
2023-02-04T01:10:59.726Z,6.20
2023-02-04T01:13:27.898Z,6.80
2023-02-04T01:15:57.725Z,7.63
2023-02-04T01:18:25.824Z,6.68
2023-02-04T01:20:53.940Z,8.07
2023-02-04T01:23:21.906Z,7.35
2023-02-04T01:25:49.781Z,8.20
2023-02-04T01:28:17.931Z,7.10
2023-02-04T01:30:45.871Z,7.55
2023-02-04T01:33:15.145Z,6.38
2023-02-04T01:35:43.029Z,7.40
2023-02-04T01:38:10.968Z,7.18
2023-02-04T01:40:39.092Z,6.55
2023-02-04T01:43:07.787Z,5.75
2023-02-04T01:45:35.962Z,6.35
2023-02-04T01:48:06.465Z,5.75
2023-02-04T01:50:36.330Z,5.85
2023-02-04T01:53:04.500Z,5.95
2023-02-04T01:55:34.284Z,5.65
2023-02-04T01:58:03.185Z,5.75
2023-02-04T02:00:35.543Z,4.72
2023-02-04T02:03:05.070Z,4.43
2023-02-04T02:05:38.878Z,6.13
2023-02-04T02:08:08.165Z,5.90
2023-02-04T02:10:40.908Z,5.68
2023-02-04T02:13:11.337Z,4.68
2023-02-04T02:15:39.865Z,4.82
2023-02-04T02:18:08.504Z,5.05
2023-02-04T02:20:38.384Z,5.50
2023-02-04T02:23:16.612Z,4.88
2023-02-04T02:25:46.780Z,6.03
2023-02-04T02:28:16.996Z,5.18
2023-02-04T02:33:14.889Z,5.07
2023-02-04T02:35:43.839Z,5.30
2023-02-04T02:38:12.630Z,5.43
2023-02-04T02:40:42.794Z,4.93
2023-02-04T02:43:16.680Z,4.53
2023-02-04T02:45:45.321Z,4.90
2023-02-04T02:48:13.392Z,4.35
2023-02-04T02:50:42.867Z,5.10
2023-02-04T02:53:12.977Z,4.50
2023-02-04T02:55:42.742Z,4.60
2023-02-04T02:58:17.854Z,4.60
2023-02-04T03:00:46.063Z,3.90
2023-02-04T03:03:22.201Z,3.47
2023-02-04T03:05:55.423Z,4.93
2023-02-04T03:08:23.948Z,3.05
2023-02-04T03:10:53.022Z,3.88
2023-02-04T03:13:22.953Z,2.85
2023-02-04T03:15:52.045Z,4.32
2023-02-04T03:18:22.261Z,3.60
2023-02-04T03:23:19.231Z,2.97
2023-02-04T03:25:47.871Z,3.63
2023-02-04T03:28:16.081Z,3.60
2023-02-04T03:30:53.826Z,3.45
2023-02-04T03:33:21.913Z,3.70
2023-02-04T03:35:50.013Z,3.10
2023-02-04T03:38:20.034Z,3.05
2023-02-04T03:40:48.305Z,4.00
2023-02-04T03:43:16.371Z,3.30
2023-02-04T03:45:46.072Z,2.70
2023-02-04T03:48:14.267Z,2.95
2023-02-04T03:50:42.169Z,2.90
2023-02-04T03:53:10.703Z,2.58
2023-02-04T03:55:38.913Z,3.25
2023-02-04T03:58:06.957Z,2.75
2023-02-04T04:00:35.012Z,2.83
2023-02-04T04:03:04.567Z,2.67
2023-02-04T04:05:32.558Z,2.38
2023-02-04T04:08:00.557Z,2.95
2023-02-04T04:10:29.494Z,2.42
2023-02-04T04:12:57.854Z,2.47
2023-02-04T04:15:25.976Z,2.70
2023-02-04T04:17:53.777Z,2.65
2023-02-04T04:20:25.496Z,2.72
2023-02-04T04:22:53.495Z,2.38
2023-02-04T04:25:21.426Z,3.22
2023-02-04T04:27:49.534Z,2.65
2023-02-04T04:30:17.746Z,2.33
2023-02-04T04:32:45.590Z,3.20
2023-02-04T04:35:13.654Z,2.78
2023-02-04T04:37:42.949Z,2.58
2023-02-04T04:40:12.893Z,2.33
2023-02-04T04:42:41.172Z,2.50
2023-02-04T04:45:10.739Z,2.60
2023-02-04T04:47:38.684Z,3.10
2023-02-04T04:50:07.063Z,2.97
2023-02-04T04:52:34.980Z,2.88
2023-02-04T04:55:05.694Z,3.33
2023-02-04T04:57:33.736Z,4.53
2023-02-04T05:00:01.711Z,3.00
2023-02-04T05:02:29.851Z,3.45
2023-02-04T05:04:58.053Z,2.28
2023-02-04T05:07:26.403Z,3.28
2023-02-04T05:09:54.274Z,3.20
2023-02-04T05:12:23.542Z,3.17
2023-02-04T05:14:51.531Z,3.03
2023-02-04T05:17:19.395Z,2.63
2023-02-04T05:19:47.400Z,3.13
2023-02-04T05:22:15.336Z,2.83
2023-02-04T05:24:43.189Z,2.75
2023-02-04T05:27:11.143Z,3.10
2023-02-04T05:29:40.377Z,3.65
2023-02-04T05:32:08.275Z,2.58
2023-02-04T05:34:36.235Z,2.83
2023-02-04T05:37:04.073Z,2.72
2023-02-04T05:39:31.941Z,2.90
2023-02-04T05:41:59.823Z,2.90
2023-02-04T05:44:27.681Z,4.20
2023-02-04T05:46:57.088Z,3.80
2023-02-04T05:49:24.951Z,3.78
2023-02-04T05:51:52.902Z,3.20
2023-02-04T05:54:20.826Z,2.90
2023-02-04T05:56:48.848Z,3.10
2023-02-04T05:59:16.738Z,2.63
2023-02-04T06:01:44.660Z,1.90
2023-02-04T06:04:15.406Z,2.20
2023-02-04T06:06:43.505Z,2.50
2023-02-04T06:09:11.667Z,2.10
2023-02-04T06:11:39.657Z,1.70
2023-02-04T06:14:07.936Z,2.13
2023-02-04T06:16:36.150Z,1.75
2023-02-04T06:19:04.064Z,1.52
2023-02-04T06:21:33.380Z,1.77
2023-02-04T06:24:01.175Z,1.57
2023-02-04T06:26:29.082Z,1.58
2023-02-04T06:28:57.116Z,1.73
2023-02-04T06:31:25.242Z,1.38
2023-02-04T06:33:53.119Z,1.50
2023-02-04T06:36:21.047Z,1.50
2023-02-04T06:38:50.340Z,1.50
2023-02-04T06:41:18.239Z,2.17
2023-02-04T06:43:46.175Z,1.90
2023-02-04T06:46:14.175Z,1.80
2023-02-04T06:48:42.100Z,1.90
2023-02-04T06:51:09.919Z,2.28
2023-02-04T06:53:37.951Z,2.00
2023-02-04T06:56:07.836Z,2.47
2023-02-04T06:58:35.948Z,2.28
2023-02-04T07:01:04.297Z,1.73
2023-02-04T07:03:32.248Z,2.03
2023-02-04T07:06:00.017Z,2.25
2023-02-04T07:08:28.076Z,2.17
2023-02-04T07:10:55.968Z,1.80
2023-02-04T07:13:25.545Z,1.90
2023-02-04T07:15:54.051Z,2.15
2023-02-04T07:18:22.088Z,1.80
2023-02-04T07:20:49.956Z,1.95
2023-02-04T07:23:17.860Z,1.77
2023-02-04T07:25:45.715Z,1.98
2023-02-04T07:28:13.585Z,1.70
2023-02-04T07:30:42.976Z,1.67
2023-02-04T07:33:10.899Z,2.67
2023-02-04T07:35:39.210Z,2.40
2023-02-04T07:38:07.452Z,1.80
2023-02-04T07:40:35.428Z,2.45
2023-02-04T07:43:03.433Z,2.40
2023-02-04T07:45:33.646Z,2.65
2023-02-04T07:48:02.928Z,1.85
2023-02-04T07:50:31.213Z,2.05
2023-02-04T07:52:59.399Z,2.10
2023-02-04T07:55:27.783Z,1.70
2023-02-04T07:57:55.972Z,1.83
2023-02-04T08:00:24.051Z,1.95
2023-02-04T08:02:52.352Z,2.05
2023-02-04T08:05:21.704Z,3.13
2023-02-04T08:07:49.853Z,3.27
2023-02-04T08:10:17.996Z,3.97
2023-02-04T08:12:45.820Z,3.78
2023-02-04T08:15:13.700Z,3.05
2023-02-04T08:17:41.606Z,2.42
2023-02-04T08:20:10.667Z,2.08
2023-02-04T08:22:40.071Z,2.42
2023-02-04T08:25:08.362Z,2.20
2023-02-04T08:27:36.376Z,2.08
2023-02-04T08:30:04.535Z,2.72
2023-02-04T08:32:32.592Z,1.55
2023-02-04T08:35:00.984Z,1.85
2023-02-04T08:37:29.162Z,2.17
2023-02-04T08:39:58.602Z,1.92
2023-02-04T08:42:26.645Z,2.40
2023-02-04T08:44:54.722Z,1.88
2023-02-04T08:47:22.958Z,2.78
2023-02-04T08:49:51.131Z,2.10
2023-02-04T08:52:19.468Z,2.00
2023-02-04T08:54:47.663Z,2.15
2023-02-04T08:57:16.902Z,2.20
2023-02-04T08:59:45.988Z,1.88
2023-02-04T09:02:13.963Z,1.90
2023-02-04T09:04:41.973Z,2.25
2023-02-04T09:07:10.110Z,2.20
2023-02-04T09:09:38.224Z,2.35
2023-02-04T09:12:06.221Z,2.10
2023-02-04T09:14:35.486Z,3.00
2023-02-04T09:17:04.179Z,2.53
2023-02-04T09:19:31.945Z,2.10
2023-02-04T09:21:59.872Z,2.45
2023-02-04T09:24:27.854Z,2.30
2023-02-04T09:26:55.725Z,2.00
2023-02-04T09:29:23.623Z,2.38
2023-02-04T09:31:52.967Z,2.15
2023-02-04T09:34:20.757Z,2.37
2023-02-04T09:36:48.981Z,2.75
2023-02-04T09:39:17.542Z,2.20
2023-02-04T09:41:45.619Z,1.70
2023-02-04T09:44:16.613Z,2.00
2023-02-04T09:46:49.363Z,2.50
2023-02-04T09:49:18.852Z,2.17
2023-02-04T09:51:48.590Z,1.80
2023-02-04T09:54:18.569Z,1.88
2023-02-04T09:56:47.428Z,1.70
2023-02-04T09:59:17.273Z,1.67
2023-02-04T10:01:45.747Z,1.60
2023-02-04T10:04:16.065Z,1.77
2023-02-04T10:06:45.688Z,1.75
2023-02-04T10:09:15.929Z,1.90
2023-02-04T10:14:16.237Z,1.52
2023-02-04T10:16:49.162Z,2.17
2023-02-04T10:19:17.377Z,1.75
2023-02-04T10:21:47.299Z,2.35
2023-02-04T10:24:17.273Z,2.00
2023-02-04T10:26:45.625Z,1.98
2023-02-04T10:29:18.689Z,1.90
2023-02-04T10:31:48.299Z,4.20
2023-02-04T10:34:19.120Z,4.55
2023-02-04T10:36:50.136Z,2.03
2023-02-04T10:39:20.046Z,1.67
2023-02-04T10:41:52.224Z,2.10
2023-02-04T10:44:26.723Z,2.10
2023-02-04T10:47:00.629Z,2.42
2023-02-04T10:49:28.718Z,2.08
2023-02-04T10:51:58.047Z,5.90
2023-02-04T10:54:31.648Z,2.80
2023-02-04T10:57:09.531Z,4.15
2023-02-04T10:59:37.927Z,2.53
2023-02-04T11:02:32.660Z,3.75
2023-02-04T11:05:01.565Z,3.05
2023-02-04T11:07:31.391Z,2.58
2023-02-04T11:09:59.620Z,2.22
2023-02-04T11:12:40.133Z,2.00
2023-02-04T11:15:29.232Z,2.40
2023-02-04T11:18:04.391Z,3.03
2023-02-04T11:20:34.629Z,1.80
2023-02-04T11:25:44.026Z,2.22
2023-02-04T11:28:16.375Z,2.22
2023-02-04T11:30:44.551Z,2.53
2023-02-04T11:33:25.279Z,2.00
2023-02-04T11:36:04.501Z,1.85
2023-02-04T11:38:34.897Z,1.88
2023-02-04T11:41:03.616Z,2.03
2023-02-04T11:43:35.429Z,2.10
2023-02-04T11:46:13.831Z,1.83
2023-02-04T11:48:42.512Z,1.90
2023-02-04T11:51:13.740Z,1.80
2023-02-04T11:53:43.581Z,1.90
2023-02-04T11:56:18.518Z,2.00
2023-02-04T11:58:48.547Z,1.70
2023-02-04T12:01:21.032Z,1.42
2023-02-04T12:03:50.828Z,1.38
2023-02-04T12:06:23.494Z,1.45
2023-02-04T12:09:05.006Z,2.00
2023-02-04T12:11:33.021Z,1.90
2023-02-04T12:14:10.126Z,1.90
2023-02-04T12:16:46.563Z,1.83
2023-02-04T12:19:14.932Z,1.67
2023-02-04T12:21:43.211Z,1.88
2023-02-04T12:24:12.759Z,1.40
2023-02-04T12:26:40.556Z,1.55
2023-02-04T12:29:09.487Z,1.67
2023-02-04T12:31:37.408Z,1.50
2023-02-04T12:34:05.447Z,1.40
2023-02-04T12:36:33.651Z,1.55
2023-02-04T12:39:03.062Z,2.20
2023-02-04T12:41:32.376Z,1.35
2023-02-04T12:44:01.395Z,1.95
2023-02-04T12:46:29.670Z,1.95
2023-02-04T12:48:58.172Z,2.10
2023-02-04T12:51:26.055Z,4.22
2023-02-04T12:53:54.088Z,3.47
2023-02-04T12:56:24.136Z,3.72
2023-02-04T12:58:53.354Z,1.70
2023-02-04T13:01:21.151Z,1.67
2023-02-04T13:03:48.998Z,2.80
2023-02-04T13:06:16.893Z,2.47
2023-02-04T13:08:44.806Z,2.20
2023-02-04T13:11:12.632Z,4.22
2023-02-04T13:13:40.596Z,2.20
2023-02-04T13:16:10.010Z,2.03
2023-02-04T13:18:38.097Z,4.07
2023-02-04T13:21:06.524Z,4.07
2023-02-04T13:23:34.357Z,2.20
2023-02-04T13:26:02.302Z,3.00
2023-02-04T13:28:30.151Z,3.20
2023-02-04T13:30:58.111Z,2.17
2023-02-04T13:33:27.593Z,1.90
2023-02-04T13:35:55.412Z,1.95
2023-02-04T13:38:23.586Z,1.60
2023-02-04T13:40:51.488Z,1.90
2023-02-04T13:43:19.422Z,1.55
2023-02-04T13:45:48.854Z,1.77
2023-02-04T13:48:17.092Z,1.30
2023-02-04T13:50:46.437Z,1.38
2023-02-04T13:53:14.373Z,3.13
2023-02-04T13:55:42.174Z,2.25
2023-02-04T13:58:10.096Z,1.70
2023-02-04T14:00:38.240Z,2.05
2023-02-04T14:03:06.190Z,2.33
2023-02-04T14:05:34.050Z,1.50
2023-02-04T14:08:03.387Z,1.40
2023-02-04T14:10:31.581Z,2.00
2023-02-04T14:12:59.909Z,1.80
2023-02-04T14:15:27.709Z,1.90
2023-02-04T14:17:55.730Z,1.55
2023-02-04T14:20:23.658Z,1.55
2023-02-04T14:22:51.523Z,1.60
2023-02-04T14:25:20.771Z,2.08
2023-02-04T14:27:48.626Z,2.90
2023-02-04T14:30:18.511Z,1.85
2023-02-04T14:32:46.510Z,3.80
2023-02-04T14:35:14.933Z,1.98
2023-02-04T14:37:42.994Z,3.50
2023-02-04T14:40:13.221Z,1.73
2023-02-04T14:42:42.632Z,4.10
2023-02-04T14:45:12.144Z,2.53
2023-02-04T14:47:41.096Z,2.85
2023-02-04T14:50:12.166Z,1.45
2023-02-04T14:52:40.096Z,1.92
2023-02-04T14:55:09.855Z,1.40
2023-02-04T14:57:37.649Z,1.42
2023-02-04T15:00:08.374Z,2.28
2023-02-04T15:02:36.334Z,3.40
2023-02-04T15:05:04.319Z,2.53
2023-02-04T15:07:32.342Z,3.22
2023-02-04T15:10:00.202Z,6.80
2023-02-04T15:12:28.095Z,8.77
2023-02-04T15:14:56.265Z,2.55
2023-02-04T15:17:25.649Z,1.90
2023-02-04T15:19:53.851Z,3.10
2023-02-04T15:22:21.751Z,3.80
2023-02-04T15:24:49.675Z,5.85
2023-02-04T15:27:17.522Z,1.52
2023-02-04T15:29:45.477Z,1.63
2023-02-04T15:32:13.427Z,2.45
2023-02-04T15:34:42.653Z,2.83
2023-02-04T15:37:11.029Z,2.80
2023-02-04T15:39:40.179Z,2.13
2023-02-04T15:42:08.213Z,2.72
2023-02-04T15:44:36.029Z,3.38
2023-02-04T15:47:05.619Z,2.75
2023-02-04T15:49:35.122Z,2.47
2023-02-04T15:52:07.138Z,10.35
2023-02-04T15:54:40.151Z,2.72
2023-02-04T15:57:08.052Z,2.65
2023-02-04T15:59:35.957Z,3.50
2023-02-04T16:02:03.858Z,2.40
2023-02-04T16:04:31.716Z,2.10
2023-02-04T16:06:59.736Z,2.10
2023-02-04T16:09:29.019Z,2.40
2023-02-04T16:11:57.193Z,3.25
2023-02-04T16:14:25.059Z,2.10
2023-02-04T16:16:52.930Z,2.35
2023-02-04T16:19:20.805Z,1.90
2023-02-04T16:21:48.671Z,2.10
2023-02-04T16:24:18.517Z,2.42
2023-02-04T16:26:47.896Z,2.58
2023-02-04T16:29:16.717Z,1.88
2023-02-04T16:31:44.672Z,2.22
2023-02-04T16:34:12.667Z,2.20
2023-02-04T16:36:40.510Z,2.30
2023-02-04T16:39:08.427Z,2.45
2023-02-04T16:41:36.296Z,2.58
2023-02-04T16:44:05.634Z,3.00
2023-02-04T16:46:33.857Z,2.20
2023-02-04T16:49:02.007Z,2.65
2023-02-04T16:51:30.321Z,4.30
2023-02-04T16:53:58.207Z,5.95
2023-02-04T16:56:30.020Z,6.47
2023-02-04T16:58:57.985Z,8.85
2023-02-04T17:01:27.446Z,13.52
2023-02-04T17:03:58.290Z,16.20
2023-02-04T17:06:26.770Z,13.18
2023-02-04T17:08:54.561Z,13.90
2023-02-04T17:11:31.851Z,11.73
2023-02-04T17:14:01.475Z,10.88
2023-02-04T17:16:31.519Z,14.80
2023-02-04T17:18:59.928Z,12.75
2023-02-04T17:21:29.791Z,14.05
2023-02-04T17:24:00.445Z,14.23
2023-02-04T17:26:28.455Z,10.57
2023-02-04T17:28:56.496Z,5.88
2023-02-04T17:31:24.400Z,5.15
2023-02-04T17:33:53.684Z,14.82
2023-02-04T17:36:21.703Z,23.55
2023-02-04T17:38:50.116Z,19.20
2023-02-04T17:41:17.952Z,14.82
2023-02-04T17:43:45.754Z,13.88
2023-02-04T17:46:13.609Z,12.32
2023-02-04T17:48:41.548Z,8.85
2023-02-04T17:51:11.150Z,5.90
2023-02-04T17:53:40.419Z,6.82
2023-02-04T17:56:12.224Z,5.95
2023-02-04T17:58:40.822Z,5.30
2023-02-04T18:01:12.288Z,6.25
2023-02-04T18:03:42.767Z,6.68
2023-02-04T18:06:20.367Z,8.57
2023-02-04T18:08:48.852Z,8.93
2023-02-04T18:11:20.601Z,9.88
2023-02-04T18:13:49.469Z,8.27
2023-02-04T18:16:25.342Z,8.07
2023-02-04T18:18:55.417Z,5.38
2023-02-04T18:21:27.267Z,5.35
2023-02-04T18:24:03.557Z,5.60
2023-02-04T18:26:34.234Z,5.88
2023-02-04T18:29:16.696Z,5.40
2023-02-04T18:31:50.728Z,5.95
2023-02-04T18:34:28.939Z,5.30
2023-02-04T18:36:58.220Z,5.93
2023-02-04T18:39:29.630Z,5.80
2023-02-04T18:41:57.507Z,5.88
2023-02-04T18:44:32.574Z,6.57
2023-02-04T18:47:03.272Z,6.68
2023-02-04T18:49:34.303Z,7.68
2023-02-04T18:52:16.520Z,7.32
2023-02-04T18:54:48.038Z,10.07
2023-02-04T18:57:36.811Z,9.75
2023-02-04T19:00:27.650Z,13.73
2023-02-04T19:02:58.730Z,18.48
2023-02-04T19:05:30.594Z,16.52
2023-02-04T19:08:17.983Z,20.63
2023-02-04T19:10:45.907Z,20.98
2023-02-04T19:13:19.930Z,20.48
2023-02-04T19:15:57.689Z,28.77
2023-02-04T19:18:28.363Z,25.17
2023-02-04T19:20:56.629Z,26.33
2023-02-04T19:23:25.975Z,24.50
2023-02-04T19:25:53.900Z,17.57
2023-02-04T19:28:30.065Z,17.95
2023-02-04T19:31:01.646Z,16.20
2023-02-04T19:33:33.912Z,13.30
2023-02-04T19:36:19.332Z,10.55
2023-02-04T19:38:52.067Z,7.82
2023-02-04T19:41:34.653Z,6.07
2023-02-04T19:44:38.082Z,7.40
2023-02-04T19:47:23.503Z,8.13
2023-02-04T19:49:51.654Z,9.18
2023-02-04T19:52:30.986Z,11.25
2023-02-04T19:55:24.566Z,15.53
2023-02-04T19:57:54.149Z,20.60
2023-02-04T20:00:46.618Z,23.80
2023-02-04T20:03:35.852Z,22.10
2023-02-04T20:06:27.505Z,21.30
2023-02-04T20:08:57.309Z,19.75
2023-02-04T20:11:50.472Z,20.67
2023-02-04T20:14:27.740Z,20.00
2023-02-04T20:16:58.507Z,20.17
2023-02-04T20:19:29.779Z,20.00
2023-02-04T20:22:13.466Z,20.30
2023-02-04T20:24:43.174Z,19.95
2023-02-04T20:27:20.093Z,18.02
2023-02-04T20:29:48.130Z,15.68
2023-02-04T20:32:21.343Z,15.80
2023-02-04T20:34:49.289Z,16.95
2023-02-04T20:37:24.007Z,16.13
2023-02-04T20:39:51.920Z,16.35
2023-02-04T20:42:33.655Z,15.32
2023-02-04T20:45:27.673Z,15.85
2023-02-04T20:47:59.945Z,15.82
2023-02-04T20:50:38.010Z,15.48
2023-02-04T20:53:17.911Z,17.52
2023-02-04T20:55:50.000Z,20.83
2023-02-04T20:58:22.223Z,16.58
2023-02-04T21:00:53.920Z,17.85
2023-02-04T21:03:27.904Z,18.00
2023-02-04T21:05:58.228Z,16.80
2023-02-04T21:08:34.469Z,15.25
2023-02-04T21:11:03.587Z,13.38
2023-02-04T21:13:33.257Z,14.02
2023-02-04T21:16:01.373Z,11.55
2023-02-04T21:18:30.623Z,12.55
2023-02-04T21:20:58.581Z,12.07
2023-02-04T21:23:26.691Z,11.23
2023-02-04T21:25:54.639Z,11.85
2023-02-04T21:28:22.575Z,9.30
2023-02-04T21:30:52.031Z,7.35
2023-02-04T21:33:19.954Z,6.90
2023-02-04T21:35:47.789Z,8.73
2023-02-04T21:38:15.848Z,9.60
2023-02-04T21:40:43.726Z,10.40
2023-02-04T21:43:11.814Z,10.63
2023-02-04T21:45:40.600Z,9.25
2023-02-04T21:48:09.912Z,5.80
2023-02-04T21:50:39.714Z,5.40
2023-02-04T21:53:08.735Z,4.40
2023-02-04T21:55:37.546Z,5.05
2023-02-04T21:58:05.815Z,7.72
2023-02-04T22:00:34.114Z,6.13
2023-02-04T22:03:02.616Z,5.82
2023-02-04T22:05:32.512Z,6.47
2023-02-04T22:08:00.636Z,5.47
2023-02-04T22:10:28.452Z,5.53
2023-02-04T22:12:56.477Z,5.72
2023-02-04T22:15:24.866Z,5.95
2023-02-04T22:17:53.915Z,4.88
2023-02-04T22:20:23.346Z,7.53
2023-02-04T22:22:53.307Z,6.65
2023-02-04T22:25:22.287Z,4.35
2023-02-04T22:27:50.430Z,4.85
2023-02-04T22:30:19.380Z,7.38
2023-02-04T22:32:47.470Z,8.77
2023-02-04T22:35:16.312Z,6.95
2023-02-04T22:37:44.182Z,4.70
2023-02-04T22:40:14.152Z,4.43
2023-02-04T22:42:42.163Z,4.90
2023-02-04T22:45:11.356Z,4.60
2023-02-04T22:47:39.681Z,9.63
2023-02-04T22:50:08.583Z,5.72
2023-02-04T22:52:36.716Z,9.27
2023-02-04T22:55:05.080Z,7.60
2023-02-04T22:57:34.465Z,8.32
2023-02-04T23:00:02.455Z,8.38
2023-02-04T23:02:30.509Z,5.82
2023-02-04T23:04:58.409Z,6.65
2023-02-04T23:07:26.496Z,7.53
2023-02-04T23:09:54.391Z,8.43
2023-02-04T23:12:22.203Z,8.27
2023-02-04T23:14:51.580Z,9.27
2023-02-04T23:17:19.749Z,6.80
2023-02-04T23:19:47.649Z,8.98
2023-02-04T23:22:15.874Z,8.63
2023-02-04T23:24:44.374Z,10.00
2023-02-04T23:27:12.779Z,9.75
2023-02-04T23:29:41.708Z,7.88
2023-02-04T23:32:10.973Z,7.80
2023-02-04T23:34:39.101Z,8.30
2023-02-04T23:37:07.385Z,8.40
2023-02-04T23:39:35.307Z,10.10
2023-02-04T23:42:03.304Z,10.20
2023-02-04T23:44:31.241Z,9.63
2023-02-04T23:46:59.189Z,8.27
2023-02-04T23:49:28.487Z,7.63
2023-02-04T23:51:56.493Z,8.63
2023-02-04T23:54:24.717Z,8.70
2023-02-04T23:56:53.521Z,7.80
2023-02-04T23:59:21.425Z,8.13
